Time;durP1;ratioP1;P1;durP2;ratioP2;P2;SDS_P1;SDS_P2;PMS_P1;PMS_P2;Temp;Humidity;BMP_temperature;BMP_pressure;BME280_temperature;BME280_humidity;BME280_pressure;Samples;Min_cycle;Max_cycle;Signal;HPM_P1;HPM_P2
2021/01/20 00:00:34;;;;;;;;;;;;;;;9.83;100.00;97949.59;5113862;28;19928;-77
2021/01/20 00:03:01;;;;;;;;;;;;;;;9.81;100.00;97949.25;5113790;28;19923;-77
2021/01/20 00:05:27;;;;;;;;;;;;;;;9.82;100.00;97954.38;5113849;28;19930;-77
2021/01/20 00:07:54;;;;;;;;;;;;;;;9.79;100.00;97943.34;5117308;28;20009;-77
2021/01/20 00:10:20;;;;;;;;;;;;;;;9.78;100.00;97925.84;5117745;28;19923;-77
2021/01/20 00:12:48;;;;;;;;;;;;;;;9.80;100.00;97911.44;5117260;28;19930;-77
2021/01/20 00:15:20;;;;;;;;;;;;;;;9.82;100.00;97915.34;5117696;28;20273;-77
2021/01/20 00:17:46;;;;;;;;;;;;;;;9.84;100.00;97924.06;5117540;28;19954;-77
2021/01/20 00:20:13;;;;;;;;;;;;;;;9.80;100.00;97908.66;5117517;28;19948;-77
2021/01/20 00:22:41;;;;;;;;;;;;;;;9.78;100.00;97908.31;5117380;28;19930;-77
2021/01/20 00:25:08;;;;;;;;;;;;;;;9.82;100.00;97897.81;5117407;28;20009;-78
2021/01/20 00:27:35;;;;;;;;;;;;;;;9.83;100.00;97896.59;5117150;28;19924;-77
2021/01/20 00:30:06;;;;;;;;;;;;;;;9.89;100.00;97883.66;5117450;28;19923;-77
2021/01/20 00:32:33;;;;;;;;;;;;;;;9.87;100.00;97891.69;5117159;28;20381;-77
2021/01/20 00:35:00;;;;;;;;;;;;;;;9.83;100.00;97854.75;5117293;28;19924;-77
2021/01/20 00:37:26;;;;;;;;;;;;;;;9.87;100.00;97858.19;5117097;28;19930;-75
2021/01/20 00:39:53;;;;;;;;;;;;;;;9.88;100.00;97856.97;5117129;28;19924;-77
2021/01/20 00:42:19;;;;;;;;;;;;;;;9.90;100.00;97844.16;5115637;28;19984;-74
2021/01/20 00:44:46;;;;;;;;;;;;;;;9.90;100.00;97830.19;5098963;28;19923;-74
2021/01/20 00:47:12;;;;;;;;;;;;;;;9.89;100.00;97842.56;5115833;28;20011;-77
2021/01/20 00:49:39;;;;;;;;;;;;;;;9.94;100.00;97822.47;5115734;28;19924;-77
2021/01/20 00:52:06;;;;;;;;;;;;;;;9.98;100.00;97819.59;5116787;28;19924;-77
2021/01/20 00:54:33;;;;;;;;;;;;;;;10.05;100.00;97827.72;5115665;28;19924;-74
2021/01/20 00:57:01;;;;;;;;;;;;;;;10.04;100.00;97803.84;5115518;28;20294;-76
2021/01/20 00:59:27;;;;;;;;;;;;;;;10.07;100.00;97830.88;5116819;28;19923;-76
2021/01/20 01:01:57;;;;;;;;;;;;;;;10.07;100.00;97814.13;5115433;28;19953;-76
2021/01/20 01:04:32;;;;;;;;;;;;;;;10.10;100.00;97807.66;5115444;28;20367;-76
2021/01/20 01:06:59;;;;;;;;;;;;;;;10.10;100.00;97807.66;5115311;28;19977;-76
2021/01/20 01:09:26;;;;;;;;;;;;;;;9.98;100.00;97805.63;5114584;28;20301;-76
2021/01/20 01:11:53;;;;;;;;;;;;;;;10.02;100.00;97823.03;5115578;27;20328;-76
2021/01/20 01:14:20;;;;;;;;;;;;;;;9.98;100.00;97806.41;5115031;28;20368;-76
2021/01/20 01:17:04;;;;;;;;;;;;;;;9.97;100.00;97792.88;5114719;28;20354;-76
2021/01/20 01:19:39;;;;;;;;;;;;;;;9.94;100.00;97789.00;5097912;28;20270;-75
2021/01/20 01:22:06;;;;;;;;;;;;;;;9.91;100.00;97780.75;5114842;28;20014;-75
2021/01/20 01:24:36;;;;;;;;;;;;;;;9.94;100.00;97777.06;5114389;28;20360;-76
2021/01/20 01:27:03;;;;;;;;;;;;;;;9.95;100.00;97789.78;5114728;28;19959;-75
2021/01/20 01:29:29;;;;;;;;;;;;;;;9.95;100.00;97809.31;5114920;28;20393;-76
2021/01/20 01:32:02;;;;;;;;;;;;;;;9.90;100.00;97793.13;5116562;28;19924;-76
2021/01/20 01:34:28;;;;;;;;;;;;;;;9.94;100.00;97816.13;5115144;28;19924;-76
2021/01/20 01:36:59;;;;;;;;;;;;;;;9.91;100.00;97815.00;5115104;28;20032;-76
2021/01/20 01:39:44;;;;;;;;;;;;;;;9.90;100.00;97790.34;5115960;28;19932;-76
2021/01/20 01:42:12;;;;;;;;;;;;;;;9.86;100.00;97787.66;5115866;28;19931;-76
2021/01/20 01:44:39;;;;;;;;;;;;;;;9.89;100.00;97789.56;5114827;28;20370;-76
2021/01/20 01:47:12;;;;;;;;;;;;;;;9.84;100.00;97778.19;5114696;28;20045;-76
2021/01/20 01:49:46;;;;;;;;;;;;;;;9.85;100.00;97768.59;5114501;28;19924;-77
2021/01/20 01:52:16;;;;;;;;;;;;;;;9.84;100.00;97773.41;5114421;28;19930;-76
2021/01/20 01:55:02;;;;;;;;;;;;;;;9.78;100.00;97768.84;5115415;28;19924;-76
2021/01/20 01:58:01;;;;;;;;;;;;;;;9.79;100.00;97759.22;5097531;28;19924;-76
2021/01/20 02:00:27;;;;;;;;;;;;;;;9.79;100.00;97742.50;5114494;28;19923;-76
2021/01/20 02:03:04;;;;;;;;;;;;;;;9.78;100.00;97741.72;5114421;28;19928;-76
2021/01/20 02:05:30;;;;;;;;;;;;;;;9.84;100.00;97739.16;5114251;28;20286;-76
2021/01/20 02:07:59;;;;;;;;;;;;;;;9.87;100.00;97741.03;5113823;28;19930;-76
2021/01/20 02:10:32;;;;;;;;;;;;;;;9.93;100.00;97737.22;5114134;28;20386;-76
2021/01/20 02:13:00;;;;;;;;;;;;;;;9.93;100.00;97740.03;5113958;28;19947;-76
2021/01/20 02:15:43;;;;;;;;;;;;;;;9.97;100.00;97714.78;5114157;28;19930;-76
2021/01/20 02:18:13;;;;;;;;;;;;;;;9.99;100.00;97729.06;5114075;28;19928;-76
2021/01/20 02:21:22;;;;;;;;;;;;;;;10.00;100.00;97719.44;5113939;28;19930;-76
2021/01/20 02:24:17;;;;;;;;;;;;;;;9.90;100.00;97701.88;5115087;28;19927;-76
2021/01/20 02:27:08;;;;;;;;;;;;;;;9.85;100.00;97707.22;5113829;28;19928;-76
2021/01/20 02:29:42;;;;;;;;;;;;;;;9.79;100.00;97714.59;5113234;28;20018;-76
2021/01/20 02:32:28;;;;;;;;;;;;;;;9.71;100.00;97714.06;5115045;28;19931;-76
2021/01/20 02:34:57;;;;;;;;;;;;;;;9.73;100.00;97706.03;5113840;28;19928;-76
2021/01/20 02:37:24;;;;;;;;;;;;;;;9.77;100.00;97705.94;5113502;28;20025;-76
2021/01/20 02:40:10;;;;;;;;;;;;;;;9.71;100.00;97685.41;5114978;28;19923;-76
2021/01/20 02:43:00;;;;;;;;;;;;;;;9.72;100.00;97681.38;5113545;28;20351;-76
2021/01/20 02:45:47;;;;;;;;;;;;;;;9.66;100.00;97660.88;5114653;28;19924;-76
2021/01/20 02:48:14;;;;;;;;;;;;;;;9.68;100.00;97658.44;5113494;28;19973;-76
2021/01/20 02:50:41;;;;;;;;;;;;;;;9.70;100.00;97651.16;5113113;28;19924;-76
2021/01/20 02:53:15;;;;;;;;;;;;;;;9.69;100.00;97635.66;5113460;28;20377;-76
2021/01/20 02:55:56;;;;;;;;;;;;;;;9.73;100.00;97621.56;5114577;27;19924;-76
2021/01/20 02:58:44;;;;;;;;;;;;;;;9.76;100.00;97603.94;5113397;28;19924;-76
2021/01/20 03:01:30;;;;;;;;;;;;;;;9.76;100.00;97592.78;5114684;28;19924;-76
2021/01/20 03:03:58;;;;;;;;;;;;;;;9.75;100.00;97583.66;5114504;28;19923;-77
2021/01/20 03:06:25;;;;;;;;;;;;;;;9.76;100.00;97571.25;5114313;28;19994;-76
2021/01/20 03:08:52;;;;;;;;;;;;;;;9.76;100.00;97570.47;5114351;28;19923;-76
2021/01/20 03:11:18;;;;;;;;;;;;;;;9.80;100.00;97571.13;5114561;28;19930;-76
2021/01/20 03:13:46;;;;;;;;;;;;;;;9.84;100.00;97561.41;5114490;28;19924;-76
2021/01/20 03:16:13;;;;;;;;;;;;;;;9.84;100.00;97557.81;5114384;28;19924;-76
2021/01/20 03:18:39;;;;;;;;;;;;;;;9.87;100.00;97548.56;5114237;28;19924;-76
2021/01/20 03:21:06;;;;;;;;;;;;;;;9.90;100.00;97558.81;5114024;28;19959;-76
2021/01/20 03:23:34;;;;;;;;;;;;;;;9.96;100.00;97546.59;5114219;28;20438;-76
2021/01/20 03:26:01;;;;;;;;;;;;;;;9.98;100.00;97565.69;5113150;28;19933;-76
2021/01/20 03:28:27;;;;;;;;;;;;;;;9.98;100.00;97560.09;5114102;28;19931;-76
2021/01/20 03:30:54;;;;;;;;;;;;;;;9.91;100.00;97549.97;5114387;28;20295;-76
2021/01/20 03:33:20;;;;;;;;;;;;;;;9.88;100.00;97544.50;5114380;28;19938;-76
2021/01/20 03:35:47;;;;;;;;;;;;;;;9.85;100.00;97542.63;5114013;28;20073;-76
2021/01/20 03:38:13;;;;;;;;;;;;;;;9.81;100.00;97523.25;5114346;28;19924;-76
2021/01/20 03:40:39;;;;;;;;;;;;;;;9.81;100.00;97514.09;5115847;28;20445;-76
2021/01/20 03:43:06;;;;;;;;;;;;;;;9.79;100.00;97517.34;5118248;28;20456;-76
2021/01/20 03:45:33;;;;;;;;;;;;;;;9.76;100.00;97509.09;5118399;28;20306;-76
2021/01/20 03:47:59;;;;;;;;;;;;;;;9.80;100.00;97502.16;5117009;28;19959;-76
2021/01/20 03:50:25;;;;;;;;;;;;;;;9.84;100.00;97496.47;5116722;28;19924;-76
2021/01/20 03:52:52;;;;;;;;;;;;;;;9.85;100.00;97495.22;5118166;28;19928;-76
2021/01/20 03:55:18;;;;;;;;;;;;;;;9.83;100.00;97476.16;5118275;28;20294;-76
2021/01/20 03:57:45;;;;;;;;;;;;;;;9.85;100.00;97472.91;5118096;27;19924;-76
2021/01/20 04:00:12;;;;;;;;;;;;;;;9.86;100.00;97474.47;5118077;28;20420;-76
2021/01/20 04:02:39;;;;;;;;;;;;;;;9.86;100.00;97480.81;5118303;28;20290;-76
2021/01/20 04:05:17;;;;;;;;;;;;;;;9.80;100.00;97465.91;5116428;28;19931;-76
2021/01/20 04:07:44;;;;;;;;;;;;;;;9.80;100.00;97460.31;5118000;28;19962;-76
2021/01/20 04:10:11;;;;;;;;;;;;;;;9.82;100.00;97454.28;5117774;28;20378;-76
2021/01/20 04:12:38;;;;;;;;;;;;;;;9.80;100.00;97443.59;5116585;28;19931;-76
2021/01/20 04:15:05;;;;;;;;;;;;;;;9.82;100.00;97449.50;5117773;28;20371;-76
2021/01/20 04:17:32;;;;;;;;;;;;;;;9.80;100.00;97443.59;5117409;28;19923;-76
2021/01/20 04:19:59;;;;;;;;;;;;;;;9.82;100.00;97451.50;5117463;28;19948;-76
2021/01/20 04:22:26;;;;;;;;;;;;;;;9.81;100.00;97452.75;5117896;28;19924;-76
2021/01/20 04:24:52;;;;;;;;;;;;;;;9.82;100.00;97437.56;5117596;27;19923;-76
2021/01/20 04:27:19;;;;;;;;;;;;;;;9.80;100.00;97445.63;5099670;28;20359;-76
2021/01/20 04:29:45;;;;;;;;;;;;;;;9.78;100.00;97434.13;5116191;28;20363;-75
2021/01/20 04:32:12;;;;;;;;;;;;;;;9.79;100.00;97446.84;5117093;28;20442;-75
2021/01/20 04:34:39;;;;;;;;;;;;;;;9.79;100.00;97430.09;5117460;28;20012;-75
2021/01/20 04:37:05;;;;;;;;;;;;;;;9.83;100.00;97417.56;5117339;28;19976;-75
2021/01/20 04:39:32;;;;;;;;;;;;;;;9.77;100.00;97416.63;5116404;28;19930;-75
2021/01/20 04:41:58;;;;;;;;;;;;;;;9.77;100.00;97427.78;5117147;28;19923;-75
2021/01/20 04:44:25;;;;;;;;;;;;;;;9.81;100.00;97419.28;5117353;27;19928;-75
2021/01/20 04:46:52;;;;;;;;;;;;;;;9.78;100.00;97417.41;5115596;28;20420;-75
2021/01/20 04:49:19;;;;;;;;;;;;;;;9.78;100.00;97414.63;5117059;27;19924;-75
2021/01/20 04:51:47;;;;;;;;;;;;;;;9.75;100.00;97419.09;5116341;28;19969;-75
2021/01/20 04:54:15;;;;;;;;;;;;;;;9.77;100.00;97421.44;5117090;28;19924;-74
2021/01/20 04:56:41;;;;;;;;;;;;;;;9.74;100.00;97417.53;5116906;28;20363;-75
2021/01/20 04:59:08;;;;;;;;;;;;;;;9.77;100.00;97427.00;5116970;28;20018;-75
2021/01/20 05:01:35;;;;;;;;;;;;;;;9.79;100.00;97413.38;5116806;28;20012;-75
2021/01/20 05:04:03;;;;;;;;;;;;;;;9.80;100.00;97420.53;5116869;28;19927;-75
2021/01/20 05:06:30;;;;;;;;;;;;;;;9.78;100.00;97386.72;5115494;28;19923;-75
2021/01/20 05:08:57;;;;;;;;;;;;;;;9.77;100.00;97407.50;5115514;28;19932;-75
2021/01/20 05:11:36;;;;;;;;;;;;;;;9.72;100.00;97417.22;5116691;28;19927;-75
2021/01/20 05:14:09;;;;;;;;;;;;;;;9.72;100.00;97403.28;5116767;28;19924;-75
2021/01/20 05:16:36;;;;;;;;;;;;;;;9.78;100.00;97403.47;5116262;28;20030;-75
2021/01/20 05:19:03;;;;;;;;;;;;;;;9.78;100.00;97400.66;5116185;28;20019;-75
2021/01/20 05:21:29;;;;;;;;;;;;;;;9.74;100.00;97389.63;5116382;28;19924;-75
2021/01/20 05:24:14;;;;;;;;;;;;;;;9.79;100.00;97391.06;5116448;28;19969;-75
2021/01/20 05:26:44;;;;;;;;;;;;;;;9.83;100.00;97397.28;5116386;28;19923;-74
2021/01/20 05:29:11;;;;;;;;;;;;;;;9.84;100.00;97394.03;5116158;28;19927;-74
2021/01/20 05:31:38;;;;;;;;;;;;;;;9.88;100.00;97394.66;5114798;28;20018;-75
2021/01/20 05:34:06;;;;;;;;;;;;;;;9.89;100.00;97401.78;5115037;28;19934;-75
2021/01/20 05:36:33;;;;;;;;;;;;;;;9.89;100.00;97399.00;5115082;28;20027;-75
2021/01/20 05:39:00;;;;;;;;;;;;;;;9.85;100.00;97389.22;5114811;28;19935;-76
2021/01/20 05:41:30;;;;;;;;;;;;;;;9.89;100.00;97401.03;5115860;28;19924;-75
2021/01/20 05:44:12;;;;;;;;;;;;;;;9.91;100.00;97393.75;5116007;28;19930;-75
2021/01/20 05:46:40;;;;;;;;;;;;;;;9.89;100.00;97384.31;5115715;28;19923;-75
2021/01/20 05:49:07;;;;;;;;;;;;;;;9.88;100.00;97399.47;5115257;28;19923;-75
2021/01/20 05:51:42;;;;;;;;;;;;;;;9.86;100.00;97399.91;5114104;28;19923;-75
2021/01/20 05:54:09;;;;;;;;;;;;;;;9.90;100.00;97408.16;5115722;28;19931;-75
2021/01/20 05:56:36;;;;;;;;;;;;;;;9.91;100.00;97404.13;5115803;28;19930;-75
2021/01/20 05:59:09;;;;;;;;;;;;;;;9.91;100.00;97412.50;5115596;28;19924;-75
2021/01/20 06:01:39;;;;;;;;;;;;;;;9.89;100.00;97412.94;5115443;28;20012;-75
2021/01/20 06:04:06;;;;;;;;;;;;;;;9.91;100.00;97395.75;5113344;28;19928;-75
2021/01/20 06:06:33;;;;;;;;;;;;;;;9.93;100.00;97429.56;5115558;28;19930;-75
2021/01/20 06:09:00;;;;;;;;;;;;;;;9.95;100.00;97429.88;5114187;28;19924;-75
2021/01/20 06:11:27;;;;;;;;;;;;;;;9.99;100.00;97436.09;5115385;28;19998;-75
2021/01/20 06:13:53;;;;;;;;;;;;;;;9.98;100.00;97437.34;5114995;28;19930;-75
2021/01/20 06:16:22;;;;;;;;;;;;;;;9.92;100.00;97439.19;5115269;28;19931;-75
2021/01/20 06:18:50;;;;;;;;;;;;;;;9.99;100.00;97433.31;5115043;28;19923;-75
2021/01/20 06:21:17;;;;;;;;;;;;;;;10.06;100.00;97449.75;5113919;28;19924;-75
2021/01/20 06:23:50;;;;;;;;;;;;;;;10.07;100.00;97473.69;5115120;28;20393;-76
2021/01/20 06:26:17;;;;;;;;;;;;;;;10.03;100.00;97481.38;5113710;28;19923;-77
2021/01/20 06:28:47;;;;;;;;;;;;;;;10.07;100.00;97484.84;5114672;28;19924;-75
2021/01/20 06:31:14;;;;;;;;;;;;;;;10.03;100.00;97489.75;5115254;28;19924;-77
2021/01/20 06:33:41;;;;;;;;;;;;;;;10.00;100.00;97491.44;5114912;28;19923;-77
2021/01/20 06:36:07;;;;;;;;;;;;;;;10.04;100.00;97505.25;5114768;28;19924;-77
2021/01/20 06:38:34;;;;;;;;;;;;;;;10.03;100.00;97510.06;5113734;28;19928;-77
2021/01/20 06:41:03;;;;;;;;;;;;;;;10.03;100.00;97517.63;5114825;28;19931;-77
2021/01/20 06:43:38;;;;;;;;;;;;;;;10.05;100.00;97529.13;5113214;28;19923;-76
2021/01/20 06:46:21;;;;;;;;;;;;;;;10.03;100.00;97535.16;5114568;28;19927;-77
2021/01/20 06:48:51;;;;;;;;;;;;;;;9.98;100.00;97552.50;5114338;28;19924;-77
2021/01/20 06:51:18;;;;;;;;;;;;;;;10.02;100.00;97547.56;5113142;28;19931;-77
2021/01/20 06:54:00;;;;;;;;;;;;;;;10.03;100.00;97546.34;5114492;28;19951;-77
2021/01/20 06:56:30;;;;;;;;;;;;;;;10.00;100.00;97547.25;5096220;28;19924;-77
2021/01/20 06:59:15;;;;;;;;;;;;;;;9.95;100.00;97541.47;5099405;28;19986;-77
2021/01/20 07:01:42;;;;;;;;;;;;;;;9.83;100.00;97531.94;5109382;28;19934;-76
2021/01/20 07:04:08;;;;;;;;;;;;;;;9.88;100.00;97533.34;5109697;28;20019;-74
2021/01/20 07:06:35;;;;;;;;;;;;;;;9.90;100.00;97531.69;5108834;28;20675;-74
2021/01/20 07:09:04;;;;;;;;;;;;;;;9.95;100.00;97494.81;5109747;28;19924;-74
2021/01/20 07:11:31;;;;;;;;;;;;;;;9.97;100.00;97530.63;5109982;28;19924;-74
2021/01/20 07:13:57;;;;;;;;;;;;;;;9.96;100.00;97510.34;5109018;28;20387;-74
2021/01/20 07:16:24;;;;;;;;;;;;;;;9.98;100.00;97504.31;5109724;28;19924;-75
2021/01/20 07:18:52;;;;;;;;;;;;;;;9.98;100.00;97504.31;5108759;28;19928;-74
2021/01/20 07:21:19;;;;;;;;;;;;;;;9.94;100.00;97453.44;5110084;28;19924;-74
2021/01/20 07:23:46;;;;;;;;;;;;;;;10.02;100.00;97482.63;5109285;28;19931;-74
2021/01/20 07:26:14;;;;;;;;;;;;;;;9.95;100.00;97474.53;5110189;28;19927;-75
2021/01/20 07:28:41;;;;;;;;;;;;;;;10.01;100.00;97478.28;5095783;28;20347;-76
2021/01/20 07:31:11;;;;;;;;;;;;;;;9.96;100.00;97474.06;5112002;28;19923;-77
2021/01/20 07:33:39;;;;;;;;;;;;;;;10.04;100.00;97446.66;5114203;28;19924;-76
2021/01/20 07:36:10;;;;;;;;;;;;;;;10.04;100.00;97453.00;5114062;28;20014;-76
2021/01/20 07:38:37;;;;;;;;;;;;;;;10.03;100.00;97448.66;5095434;28;20503;-76
2021/01/20 07:41:13;;;;;;;;;;;;;;;10.02;100.00;97437.97;5112926;28;19973;-77
2021/01/20 07:43:40;;;;;;;;;;;;;;;10.00;100.00;97434.84;5112332;28;19949;-77
2021/01/20 07:46:20;;;;;;;;;;;;;;;9.98;100.00;97424.16;5112280;28;20310;-77
2021/01/20 07:48:47;;;;;;;;;;;;;;;9.98;100.00;97421.38;5111040;28;19931;-76
2021/01/20 07:51:23;;;;;;;;;;;;;;;9.98;100.00;97398.28;5112243;28;19946;-77
2021/01/20 07:54:15;;;;;;;;;;;;;;;9.99;100.00;97405.41;5112636;28;19930;-77
2021/01/20 07:56:48;;;;;;;;;;;;;;;10.01;100.00;97369.47;5109443;28;20393;-77
2021/01/20 07:59:18;;;;;;;;;;;;;;;9.99;100.00;97346.81;5112024;28;19960;-77
2021/01/20 08:01:45;;;;;;;;;;;;;;;10.02;100.00;97362.63;5111935;28;19935;-77
2021/01/20 08:04:22;;;;;;;;;;;;;;;9.99;100.00;97344.03;5113101;28;20014;-78
2021/01/20 08:06:48;;;;;;;;;;;;;;;9.93;100.00;97329.13;5113186;28;19924;-77
2021/01/20 08:09:15;;;;;;;;;;;;;;;9.97;100.00;97336.13;5112939;28;19998;-77
2021/01/20 08:11:43;;;;;;;;;;;;;;;9.94;100.00;97323.09;5112727;28;19963;-77
2021/01/20 08:14:10;;;;;;;;;;;;;;;9.97;100.00;97322.16;5111796;28;19924;-77
2021/01/20 08:16:38;;;;;;;;;;;;;;;9.97;100.00;97313.00;5113137;28;19924;-77
2021/01/20 08:19:05;;;;;;;;;;;;;;;9.91;100.00;97314.84;5111601;28;20386;-77
2021/01/20 08:21:35;;;;;;;;;;;;;;;9.85;100.00;97280.44;5111622;28;20019;-77
2021/01/20 08:24:05;;;;;;;;;;;;;;;9.83;100.00;97292.06;5112810;28;19924;-77
2021/01/20 08:26:33;;;;;;;;;;;;;;;9.87;100.00;97275.19;5112854;28;19931;-77
2021/01/20 08:29:05;;;;;;;;;;;;;;;9.92;100.00;97263.44;5116455;28;19930;-77
2021/01/20 08:31:33;;;;;;;;;;;;;;;9.95;100.00;97254.88;5116614;28;19928;-77
2021/01/20 08:34:15;;;;;;;;;;;;;;;9.90;100.00;97236.00;5116715;28;19924;-77
2021/01/20 08:36:54;;;;;;;;;;;;;;;9.97;100.00;97213.38;5116067;28;20313;-77
2021/01/20 08:39:21;;;;;;;;;;;;;;;9.90;100.00;97207.31;5115750;28;20469;-78
2021/01/20 08:42:06;;;;;;;;;;;;;;;9.95;100.00;97209.50;5117193;28;19931;-78
2021/01/20 08:44:33;;;;;;;;;;;;;;;9.99;100.00;97198.97;5115646;28;19924;-77
2021/01/20 08:46:59;;;;;;;;;;;;;;;10.05;100.00;97180.34;5116780;28;19923;-77
2021/01/20 08:49:26;;;;;;;;;;;;;;;10.10;100.00;97183.31;5116756;28;19923;-77
2021/01/20 08:51:56;;;;;;;;;;;;;;;10.15;100.00;97173.56;5098624;28;20360;-76
2021/01/20 08:54:25;;;;;;;;;;;;;;;10.10;100.00;97161.00;5116357;28;20006;-77
2021/01/20 08:56:52;;;;;;;;;;;;;;;10.09;100.00;97158.69;5116755;28;19931;-77
2021/01/20 08:59:19;;;;;;;;;;;;;;;10.10;100.00;97149.84;5103421;28;19931;-75
2021/01/20 09:01:45;;;;;;;;;;;;;;;10.07;100.00;97133.28;5110722;28;20042;-74
2021/01/20 09:04:12;;;;;;;;;;;;;;;10.02;100.00;97142.22;5113113;28;19927;-75
2021/01/20 09:06:39;;;;;;;;;;;;;;;10.00;100.00;97119.59;5111982;28;19931;-75
2021/01/20 09:09:06;;;;;;;;;;;;;;;10.05;100.00;97116.97;5112337;28;19923;-74
2021/01/20 09:11:38;;;;;;;;;;;;;;;10.10;100.00;97115.59;5113388;28;19934;-75
2021/01/20 09:14:05;;;;;;;;;;;;;;;10.11;100.00;97106.75;5112386;28;19924;-77
2021/01/20 09:16:34;;;;;;;;;;;;;;;10.13;100.00;97103.50;5110359;28;19930;-76
2021/01/20 09:19:02;;;;;;;;;;;;;;;10.15;100.00;97106.59;5093932;28;19930;-77
2021/01/20 09:21:32;;;;;;;;;;;;;;;10.17;100.00;97101.31;5096371;28;19923;-77
2021/01/20 09:23:58;;;;;;;;;;;;;;;10.17;100.00;97104.09;5111002;28;19924;-76
2021/01/20 09:26:25;;;;;;;;;;;;;;;10.19;100.00;97102.41;5111803;28;19923;-78
2021/01/20 09:28:51;;;;;;;;;;;;;;;10.22;100.00;97106.28;5112062;28;19924;-78
2021/01/20 09:31:18;;;;;;;;;;;;;;;10.17;100.00;97093.72;5111431;28;19923;-79
2021/01/20 09:33:45;;;;;;;;;;;;;;;10.18;100.00;97100.84;5112056;28;19931;-77
2021/01/20 09:36:12;;;;;;;;;;;;;;;10.15;100.00;97104.56;5111613;28;19934;-77
2021/01/20 09:38:38;;;;;;;;;;;;;;;10.22;100.00;97106.28;5110162;28;20015;-77
2021/01/20 09:41:05;;;;;;;;;;;;;;;10.25;100.00;97106.09;5111730;28;19924;-74
2021/01/20 09:43:31;;;;;;;;;;;;;;;10.30;100.00;97115.88;5110012;28;19923;-76
2021/01/20 09:45:58;;;;;;;;;;;;;;;10.30;100.00;97113.09;5107264;28;19924;-76
2021/01/20 09:48:25;;;;;;;;;;;;;;;10.30;100.00;97105.47;5110554;28;19923;-77
2021/01/20 09:50:51;;;;;;;;;;;;;;;10.35;100.00;97098.50;5109142;28;20382;-76
2021/01/20 09:53:18;;;;;;;;;;;;;;;10.36;100.00;97077.72;5110968;28;19966;-74
2021/01/20 09:55:44;;;;;;;;;;;;;;;10.33;100.00;97068.25;5110547;28;19938;-74
2021/01/20 09:58:11;;;;;;;;;;;;;;;10.26;100.00;97056.66;5111276;28;19924;-78
2021/01/20 10:00:38;;;;;;;;;;;;;;;10.24;100.00;97059.13;5111952;28;19931;-75
2021/01/20 10:03:06;;;;;;;;;;;;;;;10.28;100.00;97060.53;5111308;28;20902;-76
2021/01/20 10:05:33;;;;;;;;;;;;;;;10.27;100.00;97063.81;5110554;28;19931;-75
2021/01/20 10:08:00;;;;;;;;;;;;;;;10.29;100.00;97052.91;5111480;28;19923;-78
2021/01/20 10:10:27;;;;;;;;;;;;;;;10.27;100.00;97070.13;5111151;28;19931;-77
2021/01/20 10:12:54;;;;;;;;;;;;;;;10.22;100.00;97059.59;5109557;28;19965;-77
2021/01/20 10:15:21;;;;;;;;;;;;;;;10.18;100.00;97044.25;5111738;28;19954;-78
2021/01/20 10:17:49;;;;;;;;;;;;;;;10.25;100.00;97049.53;5111085;28;19934;-78
2021/01/20 10:20:16;;;;;;;;;;;;;;;10.28;100.00;97054.19;5110300;28;19932;-78
2021/01/20 10:22:42;;;;;;;;;;;;;;;10.32;100.00;97054.78;5111436;28;19931;-76
2021/01/20 10:25:09;;;;;;;;;;;;;;;10.26;100.00;97048.28;5111140;28;19924;-78
2021/01/20 10:27:35;;;;;;;;;;;;;;;10.28;100.00;97034.63;5092384;28;19928;-78
2021/01/20 10:30:02;;;;;;;;;;;;;;;10.34;100.00;97046.72;5109927;28;19924;-78
2021/01/20 10:32:29;;;;;;;;;;;;;;;10.37;100.00;97040.97;5110468;28;19924;-78
2021/01/20 10:34:56;;;;;;;;;;;;;;;10.33;100.00;97031.22;5110012;28;19928;-79
2021/01/20 10:37:22;;;;;;;;;;;;;;;10.36;100.00;97027.50;5111144;28;19928;-77
2021/01/20 10:39:49;;;;;;;;;;;;;;;10.35;100.00;97020.34;5108935;28;20356;-77
2021/01/20 10:42:15;;;;;;;;;;;;;;;10.37;100.00;97021.44;5110659;28;19923;-79
2021/01/20 10:44:41;;;;;;;;;;;;;;;10.30;100.00;97012.63;5107593;28;20952;-76
2021/01/20 10:47:08;;;;;;;;;;;;;;;10.29;100.00;97019.44;5107961;28;20045;-79
2021/01/20 10:49:35;;;;;;;;;;;;;;;10.19;100.00;97023.50;5111642;28;19985;-76
2021/01/20 10:52:02;;;;;;;;;;;;;;;10.13;100.00;97003.06;5095235;28;19923;-78
2021/01/20 10:54:28;;;;;;;;;;;;;;;10.14;100.00;97026.91;5096499;28;20427;-78
2021/01/20 10:56:55;;;;;;;;;;;;;;;10.24;100.00;97009.69;5114703;28;19927;-78
2021/01/20 10:59:21;;;;;;;;;;;;;;;10.18;100.00;97030.31;5113957;28;19931;-79
2021/01/20 11:01:48;;;;;;;;;;;;;;;10.17;100.00;97026.75;5105452;28;19983;-76
2021/01/20 11:04:17;;;;;;;;;;;;;;;10.26;100.00;96998.03;5105930;28;20627;-78
2021/01/20 11:06:43;;;;;;;;;;;;;;;10.27;100.00;97007.97;5108122;28;20342;-77
2021/01/20 11:09:10;;;;;;;;;;;;;;;10.24;100.00;96992.16;5109733;28;20345;-79
2021/01/20 11:11:36;;;;;;;;;;;;;;;10.11;100.00;96961.69;5107915;28;20586;-78
2021/01/20 11:14:03;;;;;;;;;;;;;;;10.03;100.00;96977.16;5109404;28;20394;-77
2021/01/20 11:16:55;;;;;;;;;;;;;;;10.00;100.00;96966.94;5110550;28;19924;-80
2021/01/20 11:19:25;;;;;;;;;;;;;;;9.94;100.00;96971.59;5105528;28;19928;-80
2021/01/20 11:21:53;;;;;;;;;;;;;;;9.98;100.00;96971.44;5109440;28;19931;-81
2021/01/20 11:24:21;;;;;;;;;;;;;;;10.04;100.00;96983.53;5110822;28;20112;-75
2021/01/20 11:26:49;;;;;;;;;;;;;;;10.06;100.00;96975.44;5108852;28;19924;-80
2021/01/20 11:29:16;;;;;;;;;;;;;;;10.12;100.00;96984.75;5109275;28;20358;-79
2021/01/20 11:31:42;;;;;;;;;;;;;;;10.08;100.00;96978.56;5110875;28;19935;-81
2021/01/20 11:34:09;;;;;;;;;;;;;;;10.09;100.00;96957.78;5109499;28;19969;-81
2021/01/20 11:36:35;;;;;;;;;;;;;;;10.05;100.00;96962.75;5109393;28;19927;-82
2021/01/20 11:39:02;;;;;;;;;;;;;;;10.04;100.00;96977.94;5107253;28;19930;-79
2021/01/20 11:41:29;;;;;;;;;;;;;;;10.09;100.00;96975.31;5110063;28;19924;-80
2021/01/20 11:43:55;;;;;;;;;;;;;;;10.12;100.00;96959.63;5110633;28;19996;-80
2021/01/20 11:46:22;;;;;;;;;;;;;;;10.14;100.00;96966.31;5110436;28;20299;-80
2021/01/20 11:48:49;;;;;;;;;;;;;;;10.21;100.00;96940.84;5107386;28;20362;-80
2021/01/20 11:51:15;;;;;;;;;;;;;;;10.15;100.00;96953.13;5110117;28;19931;-77
2021/01/20 11:53:42;;;;;;;;;;;;;;;10.17;100.00;96931.09;5108060;28;19969;-77
2021/01/20 11:56:08;;;;;;;;;;;;;;;10.09;100.00;96918.72;5109032;28;20026;-79
2021/01/20 11:58:34;;;;;;;;;;;;;;;10.21;100.00;96920.53;5110684;28;19937;-80
2021/01/20 12:01:01;;;;;;;;;;;;;;;10.15;100.00;96923.22;5110027;28;19935;-81
2021/01/20 12:03:27;;;;;;;;;;;;;;;10.13;100.00;96914.53;5111967;28;19973;-77
2021/01/20 12:05:54;;;;;;;;;;;;;;;10.15;100.00;96909.25;5112461;28;20611;-78
2021/01/20 12:08:25;;;;;;;;;;;;;;;10.13;100.00;96891.44;5110581;28;19927;-77
2021/01/20 12:10:52;;;;;;;;;;;;;;;10.16;100.00;96901.66;5111858;28;19923;-78
2021/01/20 12:13:21;;;;;;;;;;;;;;;10.26;100.00;96905.94;5109883;28;19923;-76
2021/01/20 12:15:58;;;;;;;;;;;;;;;10.25;100.00;96907.19;5106365;28;20395;-76
2021/01/20 12:18:25;;;;;;;;;;;;;;;10.12;100.00;96825.72;5112272;28;19928;-76
2021/01/20 12:20:51;;;;;;;;;;;;;;;10.11;100.00;96889.13;5111849;28;19930;-77
2021/01/20 12:23:18;;;;;;;;;;;;;;;10.13;100.00;96881.03;5112546;28;19928;-76
2021/01/20 12:25:44;;;;;;;;;;;;;;;10.17;100.00;96894.81;5113059;28;19946;-81
2021/01/20 12:28:11;;;;;;;;;;;;;;;10.14;100.00;96892.97;5113297;28;19923;-80
2021/01/20 12:30:37;;;;;;;;;;;;;;;10.01;100.00;96873.63;5114192;28;19930;-79
2021/01/20 12:33:04;;;;;;;;;;;;;;;9.97;100.00;96877.84;5113916;28;19928;-84
2021/01/20 12:35:30;;;;;;;;;;;;;;;9.98;100.00;96882.19;5115427;28;19924;-84
2021/01/20 12:37:57;;;;;;;;;;;;;;;9.91;100.00;96886.06;5113229;28;20407;-81
2021/01/20 12:40:23;;;;;;;;;;;;;;;9.90;100.00;96906.84;5079127;28;19924;-80
2021/01/20 12:42:50;;;;;;;;;;;;;;;9.92;100.00;96890.41;5113806;28;19923;-80
2021/01/20 12:45:17;;;;;;;;;;;;;;;9.94;100.00;96887.16;5113838;28;19930;-79
2021/01/20 12:47:43;;;;;;;;;;;;;;;9.93;100.00;96882.81;5113918;28;20395;-80
2021/01/20 12:50:10;;;;;;;;;;;;;;;10.01;100.00;96897.97;5113220;28;19931;-81
2021/01/20 12:52:37;;;;;;;;;;;;;;;10.01;100.00;96879.22;5112563;28;19923;-80